Time;durP1;ratioP1;P1;durP2;ratioP2;P2;SDS_P1;SDS_P2;PMS_P1;PMS_P2;Temp;Humidity;BMP_temperature;BMP_pressure;BME280_temperature;BME280_humidity;BME280_pressure;Samples;Min_cycle;Max_cycle;Signal;HPM_P1;HPM_P2
2023/11/22 00:04:22;;;;;;;40.97;22.63;;;;;4.50;102155.00;;;;10324068;28;20231;-72
2023/11/22 00:09:24;;;;;;;44.83;23.97;;;;;4.50;102152.00;;;;10328818;28;20224;-72
2023/11/22 00:14:25;;;;;;;40.30;23.27;;;;;4.40;102146.00;;;;10319451;28;20259;-73
2023/11/22 00:19:27;;;;;;;40.70;22.43;;;;;4.40;102144.00;;;;10322465;28;20231;-72
2023/11/22 00:24:28;;;;;;;40.87;22.47;;;;;4.30;102145.00;;;;10320649;28;20311;-72
2023/11/22 00:29:29;;;;;;;34.73;21.80;;;;;4.30;102152.00;;;;10329978;28;20247;-72
2023/11/22 00:34:30;;;;;;;45.43;23.70;;;;;4.20;102152.00;;;;10323798;28;20589;-72
2023/11/22 00:39:31;;;;;;;41.43;22.93;;;;;4.20;102156.00;;;;10324225;28;20307;-74
2023/11/22 00:44:33;;;;;;;41.13;23.03;;;;;4.20;102161.00;;;;10320246;28;20227;-72
2023/11/22 00:49:34;;;;;;;44.87;24.03;;;;;4.10;102172.00;;;;10317923;28;20236;-72
2023/11/22 00:54:35;;;;;;;41.90;23.17;;;;;4.00;102163.00;;;;10319034;28;20285;-72
2023/11/22 00:59:36;;;;;;;42.07;23.73;;;;;4.00;102162.00;;;;10317510;28;21000;-72
2023/11/22 01:04:37;;;;;;;38.70;20.60;;;;;4.00;102170.00;;;;10323450;28;20230;-74
2023/11/22 01:09:38;;;;;;;42.17;23.27;;;;;3.90;102159.00;;;;10320711;28;20262;-73
2023/11/22 01:14:39;;;;;;;41.97;22.90;;;;;3.80;102177.00;;;;10325868;28;20302;-71
2023/11/22 01:19:41;;;;;;;45.17;22.53;;;;;3.80;102174.00;;;;10326005;28;20246;-73
2023/11/22 01:24:42;;;;;;;38.83;20.00;;;;;3.70;102181.00;;;;10322917;28;20227;-72
2023/11/22 01:29:43;;;;;;;36.07;20.63;;;;;3.60;102201.00;;;;10320202;28;20696;-71
2023/11/22 01:34:45;;;;;;;37.73;21.13;;;;;3.50;102218.00;;;;10336788;28;20929;-72
2023/11/22 01:39:46;;;;;;;37.93;21.03;;;;;3.40;102225.00;;;;10322354;28;20783;-71
2023/11/22 01:44:47;;;;;;;34.37;19.70;;;;;3.30;102226.00;;;;10323645;28;20323;-72
2023/11/22 01:49:49;;;;;;;38.17;20.17;;;;;3.20;102236.00;;;;10318986;28;20907;-72
2023/11/22 01:54:50;;;;;;;36.17;19.80;;;;;3.10;102262.00;;;;10315494;28;20254;-72
2023/11/22 01:59:51;;;;;;;39.93;21.03;;;;;3.10;102265.00;;;;10318639;28;20230;-72
2023/11/22 02:04:53;;;;;;;36.53;20.80;;;;;3.00;102251.00;;;;10318030;28;20224;-71
2023/11/22 02:09:54;;;;;;;43.27;21.70;;;;;2.90;102247.00;;;;10330977;28;20262;-72
2023/11/22 02:14:55;;;;;;;41.47;22.33;;;;;2.90;102252.00;;;;10316710;28;20668;-72
2023/11/22 02:19:57;;;;;;;44.23;22.53;;;;;2.90;102262.00;;;;10322670;28;20302;-72
2023/11/22 02:24:59;;;;;;;38.97;21.63;;;;;2.90;102250.00;;;;10322084;28;20239;-72
2023/11/22 02:30:05;;;;;;;34.50;18.57;;;;;2.90;102259.00;;;;10305894;28;20238;-72
2023/11/22 02:35:07;;;;;;;35.57;19.93;;;;;2.80;102246.00;;;;10304430;28;20259;-72
2023/11/22 02:40:19;;;;;;;34.40;19.03;;;;;2.70;102253.00;;;;10322656;28;20219;-72
2023/11/22 02:45:25;;;;;;;40.27;21.63;;;;;2.60;102264.00;;;;10312927;28;20216;-72
2023/11/22 02:50:27;;;;;;;37.83;20.60;;;;;2.50;102277.00;;;;10314881;28;20569;-71
2023/11/22 02:55:28;;;;;;;37.20;20.37;;;;;2.50;102284.00;;;;10305252;28;20220;-72
2023/11/22 03:00:29;;;;;;;33.17;18.47;;;;;2.40;102281.00;;;;10296948;28;20227;-73
2023/11/22 03:05:31;;;;;;;34.27;18.63;;;;;2.30;102277.00;;;;10299000;28;20220;-73
2023/11/22 03:10:32;;;;;;;39.93;20.07;;;;;2.30;102275.00;;;;10297063;28;20212;-72
2023/11/22 03:15:34;;;;;;;37.23;19.83;;;;;2.20;102263.00;;;;10313901;28;20231;-72
2023/11/22 03:20:37;;;;;;;62.53;21.77;;;;;2.10;102271.00;;;;10316135;28;20235;-72
2023/11/22 03:25:38;;;;;;;32.43;18.37;;;;;2.10;102270.00;;;;10325328;28;20251;-72
2023/11/22 03:30:40;;;;;;;41.57;19.40;;;;;2.10;102282.00;;;;10323576;28;20316;-72
2023/11/22 03:35:42;;;;;;;40.97;19.97;;;;;2.20;102266.00;;;;10310840;28;20868;-72
2023/11/22 03:40:43;;;;;;;49.63;22.57;;;;;2.40;102268.00;;;;10310507;28;20216;-71
2023/11/22 03:45:44;;;;;;;71.50;27.77;;;;;2.60;102292.00;;;;10310700;28;20255;-72
2023/11/22 03:50:45;;;;;;;69.40;26.97;;;;;2.80;102301.00;;;;10317337;28;20243;-73
2023/11/22 03:55:47;;;;;;;63.60;27.20;;;;;3.00;102319.00;;;;10313964;28;20278;-73
2023/11/22 04:00:49;;;;;;;58.17;25.83;;;;;3.10;102327.00;;;;10310327;28;20906;-72
2023/11/22 04:05:51;;;;;;;92.53;27.50;;;;;3.20;102336.00;;;;10315110;28;20227;-72
2023/11/22 04:10:52;;;;;;;91.47;26.17;;;;;3.20;102359.00;;;;10312321;28;20314;-72
2023/11/22 04:15:53;;;;;;;114.10;30.37;;;;;3.30;102370.00;;;;10311788;28;20240;-72
2023/11/22 04:20:55;;;;;;;56.17;23.43;;;;;3.30;102378.00;;;;10313211;28;20227;-73
2023/11/22 04:25:57;;;;;;;54.43;24.73;;;;;3.30;102382.00;;;;10319982;28;20231;-72
2023/11/22 04:30:59;;;;;;;42.73;22.00;;;;;3.30;102389.00;;;;10321152;28;20822;-72
2023/11/22 04:36:00;;;;;;;55.43;23.10;;;;;3.30;102396.00;;;;10303544;28;20224;-72
2023/11/22 04:41:02;;;;;;;93.90;27.37;;;;;3.30;102393.00;;;;10320287;28;20303;-72
2023/11/22 04:46:04;;;;;;;77.17;25.53;;;;;3.30;102389.00;;;;10311528;28;20228;-73
2023/11/22 04:51:05;;;;;;;183.07;28.97;;;;;3.40;102394.00;;;;10300314;28;20348;-72
2023/11/22 04:56:06;;;;;;;180.23;30.60;;;;;3.30;102401.00;;;;10321190;28;20323;-72
2023/11/22 05:01:09;;;;;;;218.83;31.77;;;;;3.30;102393.00;;;;10312327;28;20251;-71
2023/11/22 05:06:10;;;;;;;140.60;27.27;;;;;3.40;102387.00;;;;10297194;28;20822;-72
2023/11/22 05:11:11;;;;;;;156.87;31.57;;;;;3.40;102409.00;;;;10311484;28;20306;-71
2023/11/22 05:16:13;;;;;;;141.67;31.00;;;;;3.50;102408.00;;;;10324053;28;20787;-74
2023/11/22 05:21:14;;;;;;;104.73;29.87;;;;;3.50;102416.00;;;;10297252;28;20244;-73
2023/11/22 05:26:15;;;;;;;103.60;31.47;;;;;3.60;102418.00;;;;10320909;28;20224;-72
2023/11/22 05:31:16;;;;;;;127.87;33.33;;;;;3.60;102397.00;;;;10319731;28;20231;-72
2023/11/22 05:36:17;;;;;;;69.80;30.17;;;;;3.70;102408.00;;;;10313872;28;20223;-72
2023/11/22 05:41:18;;;;;;;79.13;31.27;;;;;3.70;102402.00;;;;10309961;28;20362;-72
2023/11/22 05:46:24;;;;;;;69.23;27.63;;;;;3.80;102403.00;;;;10320798;28;20883;-73
2023/11/22 05:51:26;;;;;;;78.10;29.10;;;;;3.80;102399.00;;;;10311871;28;20214;-72
2023/11/22 05:56:27;;;;;;;61.00;28.63;;;;;3.70;102392.00;;;;10267231;28;20224;-72
2023/11/22 06:01:28;;;;;;;78.30;27.93;;;;;3.70;102403.00;;;;10310460;28;21002;-72
2023/11/22 06:06:30;;;;;;;70.80;27.47;;;;;3.70;102376.00;;;;10295237;28;20638;-73
2023/11/22 06:11:31;;;;;;;87.83;29.07;;;;;3.60;102394.00;;;;10294978;28;20230;-73
2023/11/22 06:16:32;;;;;;;83.83;29.23;;;;;3.60;102412.00;;;;10287548;28;20240;-73
2023/11/22 06:21:35;;;;;;;128.63;33.57;;;;;3.60;102406.00;;;;10277607;28;20215;-72
2023/11/22 06:26:37;;;;;;;113.87;29.37;;;;;3.50;102418.00;;;;10293709;28;20227;-72
2023/11/22 06:31:38;;;;;;;109.47;29.57;;;;;3.50;102431.00;;;;10290565;28;20243;-73
2023/11/22 06:36:39;;;;;;;71.90;27.00;;;;;3.50;102416.00;;;;10317291;28;20222;-72
2023/11/22 06:41:41;;;;;;;83.67;27.67;;;;;3.50;102422.00;;;;10315942;28;20219;-72
2023/11/22 06:46:42;;;;;;;112.77;29.43;;;;;3.50;102438.00;;;;10304881;28;20236;-73
2023/11/22 06:51:43;;;;;;;86.40;28.50;;;;;3.60;102431.00;;;;10316379;28;20987;-72
2023/11/22 06:56:45;;;;;;;122.63;28.33;;;;;3.60;102425.00;;;;10318229;28;20254;-73
2023/11/22 07:01:46;;;;;;;63.47;25.33;;;;;3.60;102430.00;;;;10309291;28;20236;-72
2023/11/22 07:06:48;;;;;;;70.80;26.90;;;;;3.60;102418.00;;;;10314411;28;20712;-72
2023/11/22 07:11:49;;;;;;;99.00;27.07;;;;;3.60;102427.00;;;;10308987;28;20263;-73
2023/11/22 07:16:51;;;;;;;98.57;28.53;;;;;3.60;102422.00;;;;10315655;28;20227;-72
2023/11/22 07:21:54;;;;;;;116.60;29.93;;;;;3.70;102414.00;;;;10313037;28;20226;-73
2023/11/22 07:26:55;;;;;;;81.27;29.90;;;;;3.70;102418.00;;;;10294717;28;20266;-72
2023/11/22 07:31:58;;;;;;;56.33;25.63;;;;;3.70;102421.00;;;;10300061;28;20222;-73
2023/11/22 07:37:00;;;;;;;66.07;26.43;;;;;3.80;102413.00;;;;10311223;28;20772;-74
2023/11/22 07:42:02;;;;;;;84.97;28.50;;;;;3.90;102428.00;;;;10309021;28;20468;-73
2023/11/22 07:47:07;;;;;;;70.50;29.70;;;;;3.90;102453.00;;;;10317082;28;20768;-72
2023/11/22 07:52:13;;;;;;;82.83;30.10;;;;;4.00;102460.00;;;;10300935;28;20283;-72
2023/11/22 07:57:15;;;;;;;82.90;30.60;;;;;4.00;102444.00;;;;10301129;28;20306;-74
2023/11/22 08:02:18;;;;;;;68.70;27.40;;;;;4.10;102445.00;;;;10312835;28;20223;-72
2023/11/22 08:07:21;;;;;;;64.27;27.30;;;;;4.20;102458.00;;;;10316283;28;20306;-72
2023/11/22 08:12:23;;;;;;;63.03;27.73;;;;;4.20;102481.00;;;;10316789;28;20254;-72
2023/11/22 08:17:24;;;;;;;58.10;25.80;;;;;4.30;102486.00;;;;10312084;28;20266;-72
2023/11/22 08:22:28;;;;;;;53.57;25.13;;;;;4.40;102494.00;;;;10320972;28;20299;-73
2023/11/22 08:27:30;;;;;;;49.90;25.03;;;;;4.50;102502.00;;;;10330010;28;20298;-72
2023/11/22 08:32:31;;;;;;;51.73;23.60;;;;;4.70;102520.00;;;;10308703;28;20232;-72
2023/11/22 08:37:35;;;;;;;58.03;25.33;;;;;4.90;102508.00;;;;10315948;28;20278;-72
2023/11/22 08:42:36;;;;;;;62.47;26.03;;;;;5.10;102496.00;;;;10315956;28;20223;-72
2023/11/22 08:47:43;;;;;;;59.57;26.43;;;;;5.40;102504.00;;;;10302435;28;20224;-72
2023/11/22 08:52:45;;;;;;;62.33;27.50;;;;;5.40;102493.00;;;;10309588;28;20802;-73
2023/11/22 08:57:47;;;;;;;55.67;25.93;;;;;5.50;102505.00;;;;10303261;28;20291;-72
2023/11/22 09:02:48;;;;;;;62.10;26.93;;;;;5.60;102519.00;;;;10283964;28;20364;-73
2023/11/22 09:07:51;;;;;;;58.67;27.17;;;;;5.50;102540.00;;;;10281165;28;20233;-73
2023/11/22 09:12:52;;;;;;;56.17;27.77;;;;;5.50;102535.00;;;;10302254;28;20318;-73
2023/11/22 09:17:53;;;;;;;61.73;28.10;;;;;5.70;102549.00;;;;10311801;28;20365;-75
2023/11/22 09:22:55;;;;;;;58.23;28.23;;;;;5.70;102543.00;;;;10308075;28;20583;-72
2023/11/22 09:28:00;;;;;;;54.53;26.20;;;;;5.90;102532.00;;;;10312393;28;20231;-72
2023/11/22 09:33:03;;;;;;;55.47;27.40;;;;;6.00;102531.00;;;;10306648;28;20288;-73
2023/11/22 09:38:11;;;;;;;58.93;27.97;;;;;6.20;102541.00;;;;10311664;28;20902;-73
2023/11/22 10:07:09;;;;;;;53.47;26.83;;;;;6.30;102519.00;;;;10471454;27;20496;-73
2023/11/22 10:12:12;;;;;;;48.90;25.23;;;;;6.30;102519.00;;;;10462946;28;20213;-71
2023/11/22 10:17:16;;;;;;;55.77;28.67;;;;;6.40;102522.00;;;;10435752;28;20229;-71
2023/11/22 10:22:18;;;;;;;48.90;25.20;;;;;6.70;102520.00;;;;10431273;28;20229;-71
2023/11/22 10:27:19;;;;;;;49.03;25.13;;;;;6.70;102534.00;;;;10452836;28;20229;-73
2023/11/22 10:32:23;;;;;;;48.63;27.07;;;;;6.60;102539.00;;;;10459108;28;20222;-72
2023/11/22 10:37:25;;;;;;;40.13;22.17;;;;;6.90;102529.00;;;;10476169;28;20299;-72
2023/11/22 10:42:27;;;;;;;48.87;25.23;;;;;7.10;102528.00;;;;10458824;28;20221;-72
2023/11/22 10:47:30;;;;;;;42.23;23.00;;;;;7.10;102546.00;;;;10462419;28;20779;-71
2023/11/22 10:52:33;;;;;;;44.37;25.20;;;;;7.00;102549.00;;;;10474915;28;21047;-72
2023/11/22 10:57:47;;;;;;;35.60;21.57;;;;;7.00;102545.00;;;;10464683;28;20316;-73
2023/11/22 11:02:54;;;;;;;41.87;23.83;;;;;7.00;102533.00;;;;10460429;28;20226;-72
2023/11/22 11:08:16;;;;;;;44.07;23.80;;;;;7.20;102520.00;;;;10462365;28;20886;-72
2023/11/22 11:13:18;;;;;;;45.80;24.50;;;;;7.50;102502.00;;;;10465137;28;20217;-73
2023/11/22 11:18:20;;;;;;;37.53;21.97;;;;;7.70;102470.00;;;;10439693;28;20232;-72
2023/11/22 11:23:25;;;;;;;40.77;23.87;;;;;8.00;102464.00;;;;10422271;28;20361;-71
2023/11/22 11:28:42;;;;;;;37.90;22.23;;;;;8.00;102488.00;;;;10392844;28;20661;-72
2023/11/22 11:33:53;;;;;;;36.20;21.37;;;;;8.20;102483.00;;;;10392005;28;20301;-72
2023/11/22 11:38:56;;;;;;;35.73;21.47;;;;;8.10;102479.00;;;;10388792;28;20222;-72
2023/11/22 11:43:57;;;;;;;31.33;20.47;;;;;8.00;102494.00;;;;10386643;28;20318;-72
2023/11/22 11:48:59;;;;;;;35.50;21.87;;;;;8.30;102479.00;;;;10392355;28;20326;-72
2023/11/22 11:54:00;;;;;;;44.57;25.37;;;;;8.80;102449.00;;;;10389849;28;20223;-73
2023/11/22 11:59:02;;;;;;;37.93;22.80;;;;;9.20;102448.00;;;;10400153;28;20278;-72
2023/11/22 12:04:03;;;;;;;29.17;19.13;;;;;9.20;102455.00;;;;10395861;28;20805;-74
2023/11/22 12:09:05;;;;;;;36.87;22.07;;;;;9.30;102445.00;;;;10392020;28;20338;-72
2023/11/22 12:14:07;;;;;;;32.17;21.30;;;;;9.20;102443.00;;;;10390299;28;20226;-72
2023/11/22 12:19:11;;;;;;;34.77;20.53;;;;;9.00;102443.00;;;;10395939;28;20218;-72
2023/11/22 12:24:13;;;;;;;34.43;21.40;;;;;8.70;102450.00;;;;10388012;28;20226;-74
2023/11/22 12:29:14;;;;;;;29.37;19.47;;;;;8.50;102448.00;;;;10383463;28;20917;-73
2023/11/22 12:34:16;;;;;;;25.97;17.43;;;;;8.40;102438.00;;;;10399062;28;20271;-73
2023/11/22 12:39:20;;;;;;;32.77;20.03;;;;;8.50;102423.00;;;;10385853;28;21035;-73
2023/11/22 12:44:21;;;;;;;31.93;21.00;;;;;8.60;102425.00;;;;10383973;28;20238;-71
2023/11/22 12:49:23;;;;;;;30.60;20.20;;;;;8.70;102435.00;;;;10386981;28;20341;-72
2023/11/22 12:54:24;;;;;;;33.60;20.73;;;;;8.60;102437.00;;;;10395801;28;20281;-72
2023/11/22 12:59:30;;;;;;;26.83;18.90;;;;;8.40;102424.00;;;;10392128;28;20272;-73
2023/11/22 13:04:31;;;;;;;30.47;19.73;;;;;8.20;102426.00;;;;10376109;28;20924;-72
2023/11/22 13:09:35;;;;;;;30.07;20.07;;;;;8.10;102428.00;;;;10378474;28;20225;-72
2023/11/22 13:14:38;;;;;;;36.27;23.73;;;;;8.00;102429.00;;;;10394603;28;20264;-73
2023/11/22 13:19:40;;;;;;;37.13;23.17;;;;;8.10;102407.00;;;;10382783;28;20229;-72
2023/11/22 13:24:41;;;;;;;36.33;24.17;;;;;8.30;102376.00;;;;10379832;28;20313;-72
2023/11/22 13:29:43;;;;;;;46.93;26.67;;;;;8.50;102359.00;;;;10307357;28;20860;-74
2023/11/22 13:34:45;;;;;;;32.23;21.67;;;;;8.90;102376.00;;;;10340653;28;20265;-72
2023/11/22 13:39:46;;;;;;;30.33;19.20;;;;;9.20;102374.00;;;;10350982;28;20231;-72
2023/11/22 13:44:47;;;;;;;30.13;18.13;;;;;9.60;102381.00;;;;10329566;28;21004;-72
2023/11/22 13:49:49;;;;;;;28.90;20.17;;;;;9.30;102375.00;;;;10354798;28;20231;-72
2023/11/22 13:54:55;;;;;;;29.07;18.93;;;;;8.80;102391.00;;;;10353357;28;20222;-72
2023/11/22 13:59:56;;;;;;;23.77;17.17;;;;;8.40;102397.00;;;;10365589;28;20292;-71
2023/11/22 14:04:59;;;;;;;24.00;16.33;;;;;8.10;102387.00;;;;10367736;28;20280;-73
2023/11/22 14:10:03;;;;;;;23.83;16.70;;;;;8.10;102371.00;;;;10393380;28;20872;-72
2023/11/22 14:15:05;;;;;;;30.87;16.87;;;;;8.40;102362.00;;;;10380716;28;20214;-73
2023/11/22 14:20:09;;;;;;;22.10;17.20;;;;;8.50;102370.00;;;;10368007;28;20279;-73
2023/11/22 14:25:15;;;;;;;25.17;17.47;;;;;8.40;102373.00;;;;10382738;28;20309;-72
2023/11/22 14:30:17;;;;;;;24.70;18.37;;;;;8.30;102370.00;;;;10393896;28;20597;-73
2023/11/22 14:35:18;;;;;;;25.83;17.70;;;;;8.10;102384.00;;;;10388471;28;21090;-72
2023/11/22 14:40:20;;;;;;;25.50;17.07;;;;;7.90;102393.00;;;;10385373;28;20341;-72
2023/11/22 14:45:21;;;;;;;30.50;17.73;;;;;7.80;102397.00;;;;10381818;28;20261;-73
2023/11/22 14:50:25;;;;;;;23.90;16.87;;;;;7.60;102399.00;;;;10392375;28;20223;-71
2023/11/22 14:55:27;;;;;;;25.03;16.73;;;;;7.50;102393.00;;;;10403051;28;20253;-73
2023/11/22 15:00:28;;;;;;;27.10;18.23;;;;;7.40;102381.00;;;;10403103;28;20234;-71
2023/11/22 15:05:29;;;;;;;27.40;18.27;;;;;7.30;102376.00;;;;10393884;28;20249;-72
2023/11/22 15:10:31;;;;;;;29.60;19.07;;;;;7.20;102362.00;;;;10404336;28;20233;-71
2023/11/22 15:15:32;;;;;;;29.00;18.03;;;;;7.20;102347.00;;;;10412188;28;20216;-71
2023/11/22 15:20:33;;;;;;;27.37;16.57;;;;;7.10;102355.00;;;;10404262;28;20250;-71
2023/11/22 15:25:34;;;;;;;26.17;16.03;;;;;7.10;102358.00;;;;10398813;28;20704;-72
2023/11/22 15:30:36;;;;;;;25.27;16.67;;;;;7.00;102369.00;;;;10399037;28;20384;-71
2023/11/22 15:35:37;;;;;;;29.10;17.33;;;;;6.90;102376.00;;;;10398551;28;20218;-71
2023/11/22 15:40:39;;;;;;;24.87;15.90;;;;;6.90;102375.00;;;;10396369;28;20221;-72
2023/11/22 15:45:42;;;;;;;31.30;17.57;;;;;6.80;102373.00;;;;10404483;28;20351;-71
2023/11/22 15:50:43;;;;;;;27.67;17.30;;;;;6.80;102373.00;;;;10402584;28;20214;-72
2023/11/22 15:55:45;;;;;;;25.90;16.80;;;;;6.80;102386.00;;;;10405420;28;20211;-72
2023/11/22 16:00:47;;;;;;;31.47;17.93;;;;;6.70;102381.00;;;;10398651;28;20211;-71
2023/11/22 16:05:48;;;;;;;27.93;17.77;;;;;6.70;102392.00;;;;10398156;28;20307;-72
2023/11/22 16:10:49;;;;;;;25.37;17.03;;;;;6.70;102391.00;;;;10380989;28;20234;-71
2023/11/22 16:15:51;;;;;;;25.07;16.30;;;;;6.60;102376.00;;;;10407970;28;20301;-71
2023/11/22 16:20:53;;;;;;;26.13;16.73;;;;;6.60;102366.00;;;;10405335;28;20786;-71
2023/11/22 16:25:54;;;;;;;30.70;17.63;;;;;6.60;102348.00;;;;10401851;28;20576;-71
2023/11/22 16:30:55;;;;;;;26.03;16.50;;;;;6.50;102317.00;;;;10401739;28;20218;-71
2023/11/22 16:35:57;;;;;;;29.10;18.03;;;;;6.40;102297.00;;;;10402004;28;20222;-72
2023/11/22 16:40:58;;;;;;;31.87;19.57;;;;;6.40;102303.00;;;;10405968;28;20334;-72
2023/11/22 16:45:59;;;;;;;32.50;18.73;;;;;6.50;102315.00;;;;10402611;28;20238;-71
2023/11/22 16:51:01;;;;;;;26.67;17.67;;;;;6.50;102308.00;;;;10382919;28;20234;-72
2023/11/22 16:56:02;;;;;;;29.23;17.47;;;;;6.50;102297.00;;;;10393913;28;20229;-71
2023/11/22 17:01:05;;;;;;;31.13;19.33;;;;;6.50;102305.00;;;;10395574;28;20588;-71
2023/11/22 17:06:07;;;;;;;32.73;19.37;;;;;6.40;102317.00;;;;10384013;28;20226;-71
2023/11/22 17:11:08;;;;;;;33.93;17.97;;;;;6.40;102329.00;;;;10396664;28;20603;-72
2023/11/22 17:16:09;;;;;;;31.53;19.80;;;;;6.40;102309.00;;;;10379348;28;20795;-72
2023/11/22 17:21:14;;;;;;;32.63;18.63;;;;;6.50;102346.00;;;;10400071;28;20229;-72
2023/11/22 17:26:17;;;;;;;31.17;17.93;;;;;6.50;102301.00;;;;10389107;28;20900;-71
2023/11/22 17:31:19;;;;;;;31.77;18.43;;;;;6.40;102310.00;;;;10369629;28;20285;-71
2023/11/22 17:36:20;;;;;;;30.47;18.63;;;;;6.40;102303.00;;;;10354164;28;20234;-72
2023/11/22 17:41:21;;;;;;;31.47;19.03;;;;;6.40;102288.00;;;;10354548;28;20277;-72
2023/11/22 17:46:22;;;;;;;35.27;19.57;;;;;6.40;102297.00;;;;10350387;28;20345;-71
2023/11/22 17:51:23;;;;;;;32.33;19.53;;;;;6.40;102279.00;;;;10357263;28;20902;-70
2023/11/22 17:56:24;;;;;;;33.70;20.07;;;;;6.40;102267.00;;;;10356642;28;20310;-72
2023/11/22 18:01:27;;;;;;;35.47;20.17;;;;;6.40;102267.00;;;;10357816;28;20219;-72
2023/11/22 18:06:29;;;;;;;37.27;20.67;;;;;6.40;102301.00;;;;10395267;28;20232;-71
2023/11/22 18:11:30;;;;;;;35.43;20.87;;;;;6.40;102289.00;;;;10400870;28;20230;-71
2023/11/22 18:16:31;;;;;;;36.37;21.93;;;;;6.40;102266.00;;;;10392347;28;20310;-72
2023/11/22 18:21:33;;;;;;;41.20;22.27;;;;;6.40;102267.00;;;;10396775;28;20298;-73
2023/11/22 18:26:34;;;;;;;34.47;20.83;;;;;6.30;102283.00;;;;10403756;28;20254;-71
2023/11/22 18:31:35;;;;;;;36.00;20.60;;;;;6.20;102264.00;;;;10399257;28;20219;-71
2023/11/22 18:36:37;;;;;;;42.47;24.53;;;;;6.10;102290.00;;;;10402782;28;20726;-71
2023/11/22 18:41:38;;;;;;;43.80;22.97;;;;;6.00;102273.00;;;;10415799;28;20249;-72
2023/11/22 18:46:39;;;;;;;38.90;22.57;;;;;6.00;102267.00;;;;10402425;28;20227;-72
2023/11/22 18:51:40;;;;;;;45.77;23.73;;;;;6.00;102276.00;;;;10402687;28;20222;-71
2023/11/22 18:56:43;;;;;;;43.87;24.23;;;;;6.00;102269.00;;;;10399149;28;20224;-72
2023/11/22 19:01:48;;;;;;;44.70;24.50;;;;;6.00;102277.00;;;;10405644;28;20229;-71
2023/11/22 19:06:49;;;;;;;39.33;22.50;;;;;5.90;102246.00;;;;10398599;28;20665;-73
2023/11/22 19:11:50;;;;;;;39.67;22.60;;;;;6.00;102263.00;;;;10405694;28;20246;-72
2023/11/22 19:16:52;;;;;;;38.87;21.30;;;;;6.10;102272.00;;;;10414575;28;20844;-71
2023/11/22 19:21:53;;;;;;;42.43;23.73;;;;;6.20;102260.00;;;;10406010;28;20246;-71
2023/11/22 19:26:55;;;;;;;41.77;23.53;;;;;6.20;102272.00;;;;10408895;28;20269;-71
2023/11/22 19:31:58;;;;;;;38.10;21.43;;;;;6.30;102261.00;;;;10403981;28;20261;-71
2023/11/22 19:36:59;;;;;;;36.40;20.73;;;;;6.20;102363.00;;;;10402853;28;20239;-72
2023/11/22 19:42:00;;;;;;;39.10;21.30;;;;;6.10;102353.00;;;;10409454;28;20258;-71
2023/11/22 19:47:04;;;;;;;34.93;20.93;;;;;6.20;102244.00;;;;10396774;28;20266;-72
2023/11/22 19:52:05;;;;;;;37.87;20.40;;;;;6.20;102204.00;;;;10402165;28;20298;-73
2023/11/22 19:57:08;;;;;;;33.33;19.73;;;;;6.20;102194.00;;;;10398294;28;20246;-72
2023/11/22 20:02:09;;;;;;;30.67;18.73;;;;;6.20;102194.00;;;;10394612;28;20227;-71
2023/11/22 20:07:10;;;;;;;35.70;20.17;;;;;6.10;102194.00;;;;10400133;28;20230;-71
2023/11/22 20:12:11;;;;;;;31.53;18.30;;;;;6.10;102197.00;;;;10403643;28;21142;-71
2023/11/22 20:17:13;;;;;;;30.67;17.57;;;;;6.10;102181.00;;;;10399485;28;20760;-72
2023/11/22 20:22:14;;;;;;;30.80;17.50;;;;;6.10;102178.00;;;;10398314;28;20221;-71
2023/11/22 20:27:15;;;;;;;29.60;17.77;;;;;6.00;102181.00;;;;10396880;28;20291;-71
2023/11/22 20:32:16;;;;;;;29.73;17.27;;;;;6.00;102189.00;;;;10398101;28;20226;-72
2023/11/22 20:37:18;;;;;;;30.60;17.07;;;;;6.10;102193.00;;;;10396006;28;20222;-71
2023/11/22 20:42:19;;;;;;;34.87;18.60;;;;;6.20;102207.00;;;;10403507;28;20253;-71
2023/11/22 20:47:20;;;;;;;28.97;17.33;;;;;6.20;102199.00;;;;10397681;28;20234;-71
2023/11/22 20:52:21;;;;;;;29.10;17.17;;;;;6.10;102196.00;;;;10402986;28;20230;-71
2023/11/22 20:57:23;;;;;;;33.93;18.23;;;;;6.00;102186.00;;;;10407075;28;20244;-72
2023/11/22 21:02:24;;;;;;;31.70;18.23;;;;;5.90;102188.00;;;;10401886;28;20222;-71
2023/11/22 21:07:25;;;;;;;33.40;16.77;;;;;5.90;102186.00;;;;10402419;28;20253;-71
2023/11/22 21:12:27;;;;;;;29.13;17.20;;;;;5.90;102174.00;;;;10401601;28;20233;-71
2023/11/22 21:17:28;;;;;;;32.77;17.33;;;;;5.90;102162.00;;;;10397584;28;20314;-71
2023/11/22 21:22:43;;;;;;;26.97;16.10;;;;;5.90;102160.00;;;;10392238;28;20234;-71
2023/11/22 21:27:44;;;;;;;29.20;16.57;;;;;6.00;102156.00;;;;10366000;28;20303;-71
2023/11/22 21:32:46;;;;;;;32.87;16.43;;;;;6.00;102158.00;;;;10396346;28;20550;-71
2023/11/22 21:37:48;;;;;;;33.70;16.90;;;;;6.10;102172.00;;;;10397974;28;20314;-70
2023/11/22 21:42:50;;;;;;;27.10;15.90;;;;;6.30;102155.00;;;;10403900;28;20776;-71
2023/11/22 21:47:51;;;;;;;30.53;15.10;;;;;6.50;102141.00;;;;10376073;28;20638;-71
2023/11/22 21:52:52;;;;;;;28.83;16.60;;;;;6.60;102137.00;;;;10399250;28;20249;-71
2023/11/22 21:57:53;;;;;;;25.80;16.17;;;;;6.80;102141.00;;;;10400972;28;20352;-71
2023/11/22 22:02:55;;;;;;;25.57;15.30;;;;;6.90;102141.00;;;;10399213;28;20844;-71
2023/11/22 22:07:56;;;;;;;28.93;15.63;;;;;7.00;102148.00;;;;10397119;28;20226;-70
2023/11/22 22:12:57;;;;;;;27.10;15.37;;;;;7.00;102139.00;;;;10398718;28;20222;-72
2023/11/22 22:17:58;;;;;;;25.83;15.10;;;;;7.00;102144.00;;;;10400048;28;20234;-72
2023/11/22 22:22:59;;;;;;;23.47;13.87;;;;;7.10;102135.00;;;;10391592;28;20692;-71
2023/11/22 22:28:01;;;;;;;32.93;15.37;;;;;7.10;102139.00;;;;10386665;28;20416;-72
2023/11/22 22:33:02;;;;;;;27.17;14.90;;;;;7.10;102152.00;;;;10392403;28;20297;-73
2023/11/22 22:38:04;;;;;;;24.13;15.03;;;;;7.20;102150.00;;;;10399365;28;20229;-71
2023/11/22 22:43:05;;;;;;;25.77;14.20;;;;;7.20;102146.00;;;;10403281;28;20313;-71
2023/11/22 22:48:06;;;;;;;28.23;13.60;;;;;7.10;102136.00;;;;10393218;28;20365;-71
2023/11/22 22:53:08;;;;;;;27.63;14.03;;;;;7.10;102134.00;;;;10395066;28;20912;-70
2023/11/22 22:58:09;;;;;;;24.40;14.60;;;;;7.10;102126.00;;;;10405562;28;20253;-72
2023/11/22 23:03:11;;;;;;;28.53;14.73;;;;;7.10;102102.00;;;;10390249;28;20229;-72
2023/11/22 23:08:13;;;;;;;27.23;15.07;;;;;7.10;102107.00;;;;10387159;28;20225;-71
2023/11/22 23:13:14;;;;;;;25.57;14.67;;;;;7.10;102106.00;;;;10405244;28;20301;-71
2023/11/22 23:18:15;;;;;;;24.40;15.20;;;;;7.10;102115.00;;;;10372937;28;20249;-71
2023/11/22 23:23:16;;;;;;;25.77;14.43;;;;;7.20;102113.00;;;;10366071;28;20242;-71
2023/11/22 23:28:18;;;;;;;29.80;14.97;;;;;7.20;102114.00;;;;10367774;28;20308;-72
2023/11/22 23:33:19;;;;;;;24.77;16.10;;;;;7.30;102113.00;;;;10368538;28;20222;-71
2023/11/22 23:38:21;;;;;;;26.40;15.73;;;;;7.30;102113.00;;;;10367492;28;20219;-71
2023/11/22 23:43:24;;;;;;;30.97;16.57;;;;;7.30;102100.00;;;;10364087;28;20219;-73
2023/11/22 23:48:28;;;;;;;23.17;15.03;;;;;7.40;102102.00;;;;10410481;28;20229;-72
2023/11/22 23:53:29;;;;;;;29.03;17.37;;;;;7.40;102095.00;;;;10388136;28;20226;-72
2023/11/22 23:58:30;;;;;;;32.70;16.77;;;;;7.40;102086.00;;;;10354138;28;20949;-71
